CheckWX is a tool to help pilots better visualize weather data.  It is not intended as a substitute for an official pre-flight weather briefing.

05:15:49 UTC

LGKO TAF
Kos Airport
Kos Island, Greece
TAF LGKO 232300Z 2400/2424 12012KT 9999 FEW010 FEW016TCU BKN025 TEMPO 2400/2424 5000 RA PROB40 TEMPO 2400/2412 3000 TSRA FEW010 FEW016CB BKN025

Feb-24@
00:00 UTC

Feb-24 @ 00:00 UTC

Feb-25@
00:00 UTC

Feb-25 @ 00:00 UTC

TAF LGKO 232300Z 2400/2424 12012KT 9999 FEW010 FEW016TCU BKN025
Wind
  • 120° at 12 KTS
Cloud Levels
  • Few at 1,000' AGL
  • Few at 1,600' AGL
  • Broken at 2,500' AGL

Feb-24@
00:00 UTC

Feb-24 @ 00:00 UTC

Feb-24@
12:00 UTC

Feb-24 @ 12:00 UTC

PROB40 TEMPO 2400/2412 3000 TSRA FEW010 FEW016CB BKN025

Temporary - 40% Likelihood

Temporary - 40% Likelihood during this time.

Conditions
Thunderstorm, Rain
Cloud Levels
  • Few at 1,000' AGL
  • Few at 1,600' AGL
  • Broken at 2,500' AGL

Feb-24@
00:00 UTC

Feb-24 @ 00:00 UTC

Feb-25@
00:00 UTC

Feb-25 @ 00:00 UTC

TEMPO 2400/2424 5000 RA

Temporary

Temporary Changes expected for less than half the time period

Conditions
Rain